createdAt,value
2022-12-12T00:01:33.505Z,8.17
2022-12-12T00:03:55.305Z,7.43
2022-12-12T00:06:16.943Z,9.13
2022-12-12T00:08:38.413Z,9.33
2022-12-12T00:10:59.923Z,9.07
2022-12-12T00:13:21.407Z,9.20
2022-12-12T00:15:42.964Z,9.20
2022-12-12T00:18:04.547Z,9.50
2022-12-12T00:20:26.092Z,9.20
2022-12-12T00:22:47.559Z,8.17
2022-12-12T00:25:09.620Z,9.17
2022-12-12T00:27:32.830Z,7.60
2022-12-12T00:29:54.831Z,7.63
2022-12-12T00:32:16.256Z,7.20
2022-12-12T00:34:37.709Z,7.57
2022-12-12T00:36:59.196Z,6.53
2022-12-12T00:39:20.759Z,7.53
2022-12-12T00:41:42.198Z,7.90
2022-12-12T00:44:04.374Z,8.17
2022-12-12T00:46:26.246Z,8.33
2022-12-12T00:48:48.122Z,8.47
2022-12-12T00:51:13.094Z,8.50
2022-12-12T00:53:35.421Z,7.63
2022-12-12T00:55:57.989Z,8.03
2022-12-12T00:58:19.432Z,8.43
2022-12-12T01:00:41.645Z,8.93
2022-12-12T01:03:03.116Z,9.63
2022-12-12T01:05:25.915Z,10.07
2022-12-12T01:07:47.511Z,10.17
2022-12-12T01:10:10.370Z,10.60
2022-12-12T01:12:31.929Z,10.37
2022-12-12T01:14:53.482Z,10.23
2022-12-12T01:17:14.933Z,9.80
2022-12-12T01:19:36.442Z,10.10
2022-12-12T01:21:58.195Z,9.70
2022-12-12T01:24:19.715Z,10.00
2022-12-12T01:26:41.167Z,10.13
2022-12-12T01:29:02.585Z,9.83
2022-12-12T01:31:24.164Z,10.47
2022-12-12T01:33:46.048Z,10.57
2022-12-12T01:36:07.789Z,10.47
2022-12-12T01:38:29.281Z,10.03
2022-12-12T01:40:51.876Z,10.03
2022-12-12T01:43:18.053Z,10.17
2022-12-12T01:45:57.585Z,9.33
2022-12-12T01:48:20.990Z,9.43
2022-12-12T01:50:44.470Z,9.77
2022-12-12T01:53:06.013Z,10.17
2022-12-12T01:55:27.635Z,9.07
2022-12-12T01:57:54.586Z,9.03
2022-12-12T02:00:16.866Z,9.27
2022-12-12T02:02:40.894Z,9.93
2022-12-12T02:05:13.113Z,9.90
2022-12-12T02:07:34.744Z,9.80
2022-12-12T02:09:56.306Z,9.90
2022-12-12T02:12:17.789Z,9.83
2022-12-12T02:14:42.322Z,10.40
2022-12-12T02:17:37.425Z,10.00
2022-12-12T02:20:20.977Z,10.37
2022-12-12T02:22:48.506Z,9.60
2022-12-12T02:25:48.551Z,10.40
2022-12-12T02:28:28.675Z,9.97
2022-12-12T02:31:08.165Z,9.30
2022-12-12T02:33:41.650Z,10.07
2022-12-12T02:36:23.883Z,9.70
2022-12-12T02:38:54.537Z,10.20
2022-12-12T02:41:35.861Z,9.73
2022-12-12T02:44:11.178Z,9.67
2022-12-12T02:46:48.902Z,9.93
2022-12-12T02:49:20.993Z,9.43
2022-12-12T02:51:43.201Z,9.47
2022-12-12T02:54:06.117Z,8.90
2022-12-12T02:56:48.529Z,9.23
2022-12-12T02:59:14.150Z,9.17
2022-12-12T03:02:11.590Z,9.63
2022-12-12T03:05:29.286Z,9.40
2022-12-12T03:08:09.380Z,9.47
2022-12-12T03:10:45.661Z,8.97
2022-12-12T03:13:25.089Z,9.40
2022-12-12T03:16:24.382Z,9.40
2022-12-12T03:18:48.607Z,9.20
2022-12-12T03:21:23.866Z,8.93
2022-12-12T03:23:51.256Z,9.30
2022-12-12T03:26:27.369Z,9.27
2022-12-12T03:28:55.172Z,8.60
2022-12-12T03:31:21.227Z,9.13
2022-12-12T03:33:48.854Z,9.00
2022-12-12T03:36:20.335Z,9.93
2022-12-12T03:38:56.811Z,9.63
2022-12-12T03:41:22.151Z,8.90
2022-12-12T03:44:09.111Z,8.93
2022-12-12T03:46:36.067Z,9.40
2022-12-12T03:49:10.489Z,9.23
2022-12-12T03:51:36.724Z,10.03
2022-12-12T03:54:24.777Z,9.00
2022-12-12T03:56:53.327Z,8.70
2022-12-12T03:59:55.378Z,9.80
2022-12-12T04:02:24.636Z,9.33
2022-12-12T04:05:00.703Z,10.30
2022-12-12T04:07:37.865Z,9.80
2022-12-12T04:10:18.102Z,9.90
2022-12-12T04:13:00.053Z,10.63
2022-12-12T04:15:47.679Z,9.93
2022-12-12T04:18:30.479Z,9.80
2022-12-12T04:21:32.269Z,10.10
2022-12-12T04:24:20.171Z,10.00
2022-12-12T04:26:52.085Z,9.77
2022-12-12T04:29:37.746Z,9.50
2022-12-12T04:32:23.747Z,9.70
2022-12-12T04:35:06.425Z,9.83
2022-12-12T04:37:32.745Z,10.43
2022-12-12T04:39:57.708Z,11.80
2022-12-12T04:42:24.337Z,13.17
2022-12-12T04:44:47.235Z,13.37
2022-12-12T04:47:11.304Z,10.40
2022-12-12T04:49:35.781Z,10.50
2022-12-12T04:52:09.235Z,11.23
2022-12-12T04:54:57.566Z,10.90
2022-12-12T04:57:25.750Z,10.10
2022-12-12T04:59:48.176Z,10.10
2022-12-12T05:02:38.213Z,10.63
2022-12-12T05:05:10.718Z,10.97
2022-12-12T05:07:40.318Z,9.77
2022-12-12T05:10:02.400Z,10.37
2022-12-12T05:12:23.982Z,11.10
2022-12-12T05:14:45.434Z,9.60
2022-12-12T05:17:11.614Z,10.30
2022-12-12T05:19:33.080Z,11.60
2022-12-12T05:21:54.540Z,15.47
2022-12-12T05:24:15.977Z,15.17
2022-12-12T05:26:37.583Z,9.87
2022-12-12T05:29:06.687Z,10.00
2022-12-12T05:31:29.065Z,10.93
2022-12-12T05:33:50.548Z,10.50
2022-12-12T05:36:12.941Z,9.70
2022-12-12T05:38:35.089Z,9.97
2022-12-12T05:40:56.546Z,10.00
2022-12-12T05:43:17.998Z,9.00
2022-12-12T05:45:39.568Z,9.60
2022-12-12T05:48:01.249Z,9.83
2022-12-12T05:50:22.700Z,8.83
2022-12-12T05:52:44.290Z,9.93
2022-12-12T05:55:06.591Z,9.00
2022-12-12T05:57:28.083Z,9.17
2022-12-12T05:59:49.519Z,8.70
2022-12-12T06:02:11.288Z,8.90
2022-12-12T06:04:33.073Z,8.97
2022-12-12T06:06:55.491Z,9.43
2022-12-12T06:09:16.918Z,8.60
2022-12-12T06:11:38.444Z,9.53
2022-12-12T06:13:59.907Z,9.67
2022-12-12T06:16:21.478Z,10.10
2022-12-12T06:18:43.173Z,9.33
2022-12-12T06:21:08.018Z,10.07
2022-12-12T06:23:29.456Z,10.20
2022-12-12T06:25:50.946Z,8.63
2022-12-12T06:28:12.371Z,9.80
2022-12-12T06:30:34.099Z,10.50
2022-12-12T06:32:55.686Z,10.37
2022-12-12T06:35:17.250Z,10.13
2022-12-12T06:37:39.870Z,10.33
2022-12-12T06:40:02.757Z,10.70
2022-12-12T06:42:24.186Z,10.70
2022-12-12T06:44:45.762Z,10.77
2022-12-12T06:47:07.204Z,10.90
2022-12-12T06:49:28.661Z,9.10
2022-12-12T06:51:50.291Z,9.00
2022-12-12T06:54:14.257Z,8.60
2022-12-12T06:56:35.719Z,8.20
2022-12-12T06:58:58.899Z,9.07
2022-12-12T07:01:22.067Z,9.50
2022-12-12T07:03:43.542Z,9.60
2022-12-12T07:06:06.209Z,8.97
2022-12-12T07:08:28.285Z,10.10
2022-12-12T07:10:49.808Z,11.00
2022-12-12T07:13:11.403Z,11.13
2022-12-12T07:15:32.965Z,10.73
2022-12-12T07:17:54.445Z,10.13
2022-12-12T07:20:15.895Z,9.70
2022-12-12T07:22:37.388Z,9.20
2022-12-12T07:24:58.847Z,8.90
2022-12-12T07:27:21.958Z,8.73
2022-12-12T07:29:43.549Z,8.50
2022-12-12T07:32:05.046Z,9.17
2022-12-12T07:34:29.265Z,9.10
2022-12-12T07:36:50.997Z,8.80
2022-12-12T07:39:20.175Z,9.00
2022-12-12T07:41:42.528Z,8.87
2022-12-12T07:44:04.737Z,8.50
2022-12-12T07:46:26.516Z,9.67
2022-12-12T07:48:48.890Z,9.93
2022-12-12T07:51:10.542Z,9.20
2022-12-12T07:53:32.095Z,10.27
2022-12-12T07:55:53.536Z,14.63
2022-12-12T07:58:14.977Z,17.00
2022-12-12T08:00:36.492Z,13.00
2022-12-12T08:02:57.973Z,13.57
2022-12-12T08:05:19.509Z,10.03
2022-12-12T08:07:41.188Z,10.13
2022-12-12T08:10:03.606Z,10.10
2022-12-12T08:12:25.181Z,11.47
2022-12-12T08:14:46.795Z,9.40
2022-12-12T08:17:08.251Z,10.03
2022-12-12T08:19:29.954Z,9.20
2022-12-12T08:21:51.504Z,9.10
2022-12-12T08:24:15.624Z,9.23
2022-12-12T08:26:37.116Z,9.57
2022-12-12T08:28:58.954Z,9.67
2022-12-12T08:31:21.393Z,9.77
2022-12-12T08:33:42.874Z,12.00
2022-12-12T08:36:18.391Z,15.43
2022-12-12T08:38:39.826Z,21.73
2022-12-12T08:41:02.420Z,22.43
2022-12-12T08:43:23.868Z,11.50
2022-12-12T08:45:47.048Z,8.73
2022-12-12T08:48:11.972Z,9.50
2022-12-12T08:50:34.122Z,9.20
2022-12-12T08:52:55.557Z,10.27
2022-12-12T08:55:17.082Z,10.27
2022-12-12T08:57:38.504Z,9.53
2022-12-12T08:59:59.946Z,8.77
2022-12-12T09:02:21.540Z,11.33
2022-12-12T09:04:43.100Z,11.50
2022-12-12T09:07:08.432Z,12.57
2022-12-12T09:09:30.334Z,12.07
2022-12-12T09:11:51.801Z,13.77
2022-12-12T09:14:13.260Z,14.30
2022-12-12T09:16:34.876Z,15.20
2022-12-12T09:18:56.819Z,14.30
2022-12-12T09:21:18.896Z,14.33
2022-12-12T09:23:40.331Z,14.70
2022-12-12T09:26:06.712Z,15.07
2022-12-12T09:28:28.633Z,13.80
2022-12-12T09:30:50.409Z,13.17
2022-12-12T09:33:13.224Z,13.97
2022-12-12T09:35:34.884Z,13.97
2022-12-12T09:37:56.330Z,13.97
2022-12-12T09:40:21.361Z,14.27
2022-12-12T09:42:49.290Z,13.70
2022-12-12T09:45:11.142Z,13.80
2022-12-12T09:47:41.801Z,14.10
2022-12-12T09:50:16.775Z,15.03
2022-12-12T09:52:38.748Z,15.27
2022-12-12T09:55:02.683Z,14.40
2022-12-12T09:57:33.077Z,14.00
2022-12-12T10:00:12.397Z,13.40
2022-12-12T10:02:39.961Z,13.30
2022-12-12T10:05:08.199Z,12.70
2022-12-12T10:07:56.902Z,12.17
2022-12-12T10:10:33.812Z,12.63
2022-12-12T10:12:58.328Z,15.33
2022-12-12T10:15:37.180Z,13.97
2022-12-12T10:18:03.046Z,14.50
2022-12-12T10:20:27.776Z,14.33
2022-12-12T10:23:00.933Z,13.67
2022-12-12T10:25:41.320Z,15.67
2022-12-12T10:28:12.839Z,16.07
2022-12-12T10:30:43.591Z,13.87
2022-12-12T10:33:18.239Z,17.00
2022-12-12T10:35:52.555Z,15.50
2022-12-12T10:38:33.014Z,15.23
2022-12-12T10:41:21.227Z,14.47
2022-12-12T10:44:24.267Z,12.70
2022-12-12T10:47:05.276Z,12.73
2022-12-12T10:49:27.091Z,12.63
2022-12-12T10:51:49.559Z,12.97
2022-12-12T10:54:20.080Z,12.60
2022-12-12T10:57:04.133Z,11.70
2022-12-12T10:59:25.526Z,12.03
2022-12-12T11:02:13.159Z,11.93
2022-12-12T11:04:34.634Z,11.47
2022-12-12T11:06:56.463Z,10.60
2022-12-12T11:09:26.027Z,9.97
2022-12-12T11:11:59.839Z,11.17
2022-12-12T11:14:27.888Z,11.00
2022-12-12T11:16:49.376Z,10.20
2022-12-12T11:19:25.126Z,10.77
2022-12-12T11:21:47.627Z,10.23
2022-12-12T11:24:14.723Z,10.70
2022-12-12T11:26:45.393Z,10.57
2022-12-12T11:29:07.305Z,9.43
2022-12-12T11:31:32.967Z,8.83
2022-12-12T11:33:59.358Z,8.40
2022-12-12T11:36:30.694Z,7.13
2022-12-12T11:38:56.428Z,7.37
2022-12-12T11:41:18.067Z,6.67
2022-12-12T11:43:45.495Z,6.77
2022-12-12T11:46:15.438Z,7.20
2022-12-12T11:48:49.045Z,7.57
2022-12-12T11:51:11.399Z,7.77
2022-12-12T11:53:36.827Z,8.17
2022-12-12T11:56:36.757Z,8.43
2022-12-12T11:59:16.727Z,8.90
2022-12-12T12:01:59.325Z,8.27
2022-12-12T12:04:38.795Z,8.40
2022-12-12T12:07:25.472Z,9.83
2022-12-12T12:09:58.371Z,8.93
2022-12-12T12:12:58.304Z,7.23
2022-12-12T12:15:28.263Z,7.30
2022-12-12T12:18:26.587Z,6.87
2022-12-12T12:21:13.722Z,4.70
2022-12-12T12:24:04.744Z,3.90
2022-12-12T12:27:03.404Z,2.57
2022-12-12T12:29:40.751Z,2.40
2022-12-12T12:32:02.144Z,3.53
2022-12-12T12:34:47.760Z,2.03
2022-12-12T12:37:27.799Z,2.80
2022-12-12T12:40:07.642Z,1.93
2022-12-12T12:43:04.628Z,2.13
2022-12-12T12:45:45.556Z,2.83
2022-12-12T12:48:15.880Z,3.17
2022-12-12T12:50:43.980Z,3.27
2022-12-12T12:53:22.234Z,3.13
2022-12-12T12:55:49.440Z,2.87
2022-12-12T12:58:20.079Z,3.60
2022-12-12T13:00:42.049Z,3.37
2022-12-12T13:03:14.320Z,3.20
2022-12-12T13:05:45.089Z,3.70
2022-12-12T13:08:19.153Z,3.27
2022-12-12T13:10:46.939Z,3.13
2022-12-12T13:13:28.115Z,3.90
2022-12-12T13:16:07.748Z,3.40
2022-12-12T13:18:44.480Z,3.83
2022-12-12T13:21:31.561Z,3.10
2022-12-12T13:24:01.689Z,3.50
2022-12-12T13:26:35.113Z,4.73
2022-12-12T13:29:05.446Z,4.63
2022-12-12T13:31:42.842Z,4.67
2022-12-12T13:34:11.731Z,4.60
2022-12-12T13:36:37.503Z,4.60
2022-12-12T13:39:02.571Z,3.93
2022-12-12T13:41:24.153Z,3.30
2022-12-12T13:43:48.517Z,3.90
2022-12-12T13:46:26.469Z,18.03
2022-12-12T13:49:11.838Z,8.03
2022-12-12T13:51:38.200Z,11.33
2022-12-12T13:54:13.734Z,6.40
2022-12-12T13:56:41.769Z,4.20
2022-12-12T13:59:25.045Z,9.10
2022-12-12T14:01:46.526Z,5.37
2022-12-12T14:04:29.612Z,3.90
2022-12-12T14:07:06.335Z,4.30
2022-12-12T14:09:47.095Z,4.20
2022-12-12T14:12:19.507Z,4.57
2022-12-12T14:14:42.584Z,4.97
2022-12-12T14:17:04.139Z,5.00
2022-12-12T14:19:29.372Z,5.93
2022-12-12T14:21:50.868Z,6.63
2022-12-12T14:24:34.255Z,6.67
2022-12-12T14:26:55.976Z,6.37
2022-12-12T14:29:17.403Z,6.70
2022-12-12T14:31:42.942Z,7.73
2022-12-12T14:34:19.856Z,6.90
2022-12-12T14:36:53.299Z,7.43
2022-12-12T14:39:36.057Z,8.23
2022-12-12T14:41:58.665Z,8.53
2022-12-12T14:44:35.288Z,8.70
2022-12-12T14:47:07.739Z,7.93
2022-12-12T14:49:29.184Z,8.93
2022-12-12T14:51:53.965Z,8.70
2022-12-12T14:54:19.762Z,8.60
2022-12-12T14:56:52.695Z,8.60
2022-12-12T14:59:25.179Z,8.53
2022-12-12T15:01:56.974Z,8.40
2022-12-12T15:04:26.032Z,7.93
2022-12-12T15:06:54.821Z,8.17
2022-12-12T15:09:29.214Z,8.43
2022-12-12T15:11:51.298Z,7.53
2022-12-12T15:14:28.189Z,7.73
2022-12-12T15:17:04.688Z,7.70
2022-12-12T15:19:31.300Z,8.77
2022-12-12T15:21:53.073Z,8.53
2022-12-12T15:24:21.103Z,8.27
2022-12-12T15:26:45.248Z,10.20
2022-12-12T15:29:07.495Z,9.63
2022-12-12T15:31:29.088Z,8.73
2022-12-12T15:33:50.757Z,11.00
2022-12-12T15:36:26.036Z,12.70
2022-12-12T15:39:11.504Z,11.27
2022-12-12T15:41:33.965Z,9.93
2022-12-12T15:43:55.614Z,7.63
2022-12-12T15:46:17.506Z,7.77
2022-12-12T15:48:44.677Z,10.53
2022-12-12T15:51:07.125Z,11.40
2022-12-12T15:53:37.978Z,12.40
2022-12-12T15:56:06.362Z,13.30
2022-12-12T15:58:49.502Z,11.00
2022-12-12T16:01:19.991Z,9.63
2022-12-12T16:04:03.409Z,10.80
2022-12-12T16:06:39.357Z,10.33
2022-12-12T16:09:02.718Z,9.93
2022-12-12T16:11:39.394Z,11.67
2022-12-12T16:14:00.877Z,11.50
2022-12-12T16:16:39.485Z,11.27
2022-12-12T16:19:01.843Z,10.40
2022-12-12T16:21:23.317Z,10.93
2022-12-12T16:23:44.804Z,10.03
2022-12-12T16:26:09.200Z,11.50
2022-12-12T16:28:31.078Z,10.40
2022-12-12T16:31:01.378Z,11.13
2022-12-12T16:33:34.116Z,10.40
2022-12-12T16:35:57.808Z,10.57
2022-12-12T16:38:19.538Z,10.67
2022-12-12T16:40:42.165Z,11.80
2022-12-12T16:43:09.475Z,10.80
2022-12-12T16:45:32.544Z,11.87
2022-12-12T16:47:54.046Z,11.07
2022-12-12T16:50:15.904Z,11.57
2022-12-12T16:52:37.549Z,11.30
2022-12-12T16:54:58.996Z,10.77
2022-12-12T16:57:21.940Z,11.53
2022-12-12T16:59:43.656Z,10.73
2022-12-12T17:02:21.749Z,11.27
2022-12-12T17:04:43.210Z,12.10
2022-12-12T17:07:08.065Z,11.43
2022-12-12T17:09:30.235Z,9.93
2022-12-12T17:11:51.884Z,9.37
2022-12-12T17:14:20.382Z,10.00
2022-12-12T17:16:42.151Z,9.03
2022-12-12T17:19:03.678Z,10.73
2022-12-12T17:21:25.127Z,10.37
2022-12-12T17:23:46.537Z,9.93
2022-12-12T17:26:08.240Z,9.63
2022-12-12T17:28:30.112Z,9.97
2022-12-12T17:30:51.578Z,10.13
2022-12-12T17:33:19.406Z,9.93
2022-12-12T17:35:40.870Z,11.30
2022-12-12T17:38:02.303Z,10.57
2022-12-12T17:40:23.744Z,10.47
2022-12-12T17:42:45.259Z,9.70
2022-12-12T17:45:08.148Z,8.90
2022-12-12T17:47:29.648Z,9.23
2022-12-12T17:49:51.162Z,9.67
2022-12-12T17:52:12.619Z,10.77
2022-12-12T17:54:34.967Z,9.50
2022-12-12T17:56:56.574Z,11.20
2022-12-12T17:59:17.987Z,11.57
2022-12-12T18:01:39.581Z,12.90
2022-12-12T18:04:02.888Z,13.37
2022-12-12T18:06:25.513Z,12.53
2022-12-12T18:08:47.660Z,13.80
2022-12-12T18:11:20.420Z,15.87
2022-12-12T18:13:42.600Z,14.80
2022-12-12T18:16:04.809Z,18.23
2022-12-12T18:18:27.557Z,17.37
2022-12-12T18:20:49.238Z,12.87
2022-12-12T18:23:10.719Z,11.43
2022-12-12T18:25:35.751Z,11.47
2022-12-12T18:27:57.245Z,10.90
2022-12-12T18:30:18.813Z,11.70
2022-12-12T18:32:40.276Z,9.87
2022-12-12T18:35:03.129Z,12.33
2022-12-12T18:37:24.552Z,14.17
2022-12-12T18:39:45.999Z,12.30
2022-12-12T18:42:07.639Z,13.90
2022-12-12T18:44:29.072Z,12.80
2022-12-12T18:46:51.748Z,12.63
2022-12-12T18:49:15.499Z,12.43
2022-12-12T18:51:37.683Z,11.67
2022-12-12T18:54:02.218Z,11.63
2022-12-12T18:56:26.528Z,11.03
2022-12-12T18:58:48.341Z,12.10
2022-12-12T19:01:15.156Z,12.60
2022-12-12T19:03:38.895Z,14.90
2022-12-12T19:06:05.178Z,13.57
2022-12-12T19:08:26.753Z,14.20
2022-12-12T19:10:48.254Z,16.60
2022-12-12T19:13:09.670Z,16.87
2022-12-12T19:15:31.409Z,16.53
2022-12-12T19:17:55.617Z,13.43
2022-12-12T19:20:17.318Z,12.40
2022-12-12T19:22:47.052Z,12.73
2022-12-12T19:25:09.766Z,12.47
2022-12-12T19:27:31.686Z,13.30
2022-12-12T19:29:53.143Z,12.63
2022-12-12T19:32:14.615Z,10.60
2022-12-12T19:34:36.072Z,9.43
2022-12-12T19:36:57.548Z,10.10
2022-12-12T19:39:19.024Z,9.07
2022-12-12T19:41:40.868Z,9.10
2022-12-12T19:44:02.803Z,9.30
2022-12-12T19:46:27.211Z,9.83
2022-12-12T19:48:52.786Z,12.33
2022-12-12T19:51:17.579Z,12.03
2022-12-12T19:53:40.903Z,12.37
2022-12-12T19:56:02.353Z,11.87
2022-12-12T19:58:23.785Z,12.57
2022-12-12T20:00:45.354Z,12.37
2022-12-12T20:03:06.817Z,12.40
2022-12-12T20:05:28.288Z,12.57
2022-12-12T20:07:49.779Z,12.43
2022-12-12T20:10:11.556Z,11.63
2022-12-12T20:12:33.185Z,12.87
2022-12-12T20:14:54.677Z,12.43
2022-12-12T20:17:16.190Z,12.87
2022-12-12T20:19:37.891Z,13.47
2022-12-12T20:22:01.180Z,13.90
2022-12-12T20:24:24.091Z,17.47
2022-12-12T20:26:45.992Z,14.90
2022-12-12T20:29:08.832Z,15.40
2022-12-12T20:31:34.447Z,14.93
2022-12-12T20:33:57.826Z,14.77
2022-12-12T20:36:22.154Z,15.27
2022-12-12T20:38:44.174Z,15.60
2022-12-12T20:41:23.528Z,15.20
2022-12-12T20:43:46.069Z,14.33
2022-12-12T20:46:15.806Z,14.47
2022-12-12T20:48:38.277Z,14.77
2022-12-12T20:50:59.742Z,12.80
2022-12-12T20:53:21.185Z,14.47
2022-12-12T20:55:42.648Z,12.53
2022-12-12T20:58:04.210Z,13.87
2022-12-12T21:00:26.546Z,13.20
2022-12-12T21:02:48.106Z,12.37
2022-12-12T21:05:09.704Z,12.27
2022-12-12T21:07:31.907Z,12.00
2022-12-12T21:09:53.348Z,11.57
2022-12-12T21:12:15.493Z,11.87
2022-12-12T21:14:37.015Z,12.53
2022-12-12T21:16:58.476Z,12.43
2022-12-12T21:19:21.119Z,13.37
2022-12-12T21:21:43.543Z,14.27
2022-12-12T21:24:05.552Z,17.50
2022-12-12T21:26:29.424Z,19.57
2022-12-12T21:28:51.536Z,16.70
2022-12-12T21:31:33.897Z,14.27
2022-12-12T21:33:56.177Z,12.63
2022-12-12T21:36:20.801Z,13.67
2022-12-12T21:38:42.928Z,15.13
2022-12-12T21:41:10.590Z,14.87
2022-12-12T21:43:32.503Z,14.77
2022-12-12T21:45:53.974Z,13.73
2022-12-12T21:48:15.436Z,12.23
2022-12-12T21:50:37.827Z,13.40
2022-12-12T21:53:17.989Z,15.53
2022-12-12T21:55:41.140Z,11.17
2022-12-12T21:58:02.712Z,12.97
2022-12-12T22:00:25.894Z,12.13
2022-12-12T22:02:50.212Z,12.20
2022-12-12T22:05:12.280Z,12.00
2022-12-12T22:07:34.974Z,11.93
2022-12-12T22:09:57.960Z,12.67
2022-12-12T22:12:33.511Z,12.07
2022-12-12T22:14:55.021Z,12.60
2022-12-12T22:17:16.578Z,12.30
2022-12-12T22:19:37.996Z,13.40
2022-12-12T22:21:59.745Z,11.93
2022-12-12T22:24:21.798Z,13.47
2022-12-12T22:26:46.267Z,16.10
2022-12-12T22:29:12.258Z,19.07
2022-12-12T22:31:37.291Z,14.07
2022-12-12T22:34:04.982Z,13.80
2022-12-12T22:36:31.917Z,15.47
2022-12-12T22:38:54.343Z,15.00
2022-12-12T22:41:15.812Z,12.50
2022-12-12T22:43:37.252Z,14.17
2022-12-12T22:46:06.796Z,14.00
2022-12-12T22:48:29.866Z,12.33
2022-12-12T22:50:51.383Z,12.57
2022-12-12T22:53:13.395Z,16.17
2022-12-12T22:55:35.540Z,16.10
2022-12-12T22:57:58.249Z,15.33
2022-12-12T23:00:19.789Z,13.13
2022-12-12T23:02:41.238Z,12.33
2022-12-12T23:05:02.880Z,12.23
2022-12-12T23:07:24.423Z,12.57
2022-12-12T23:09:52.371Z,12.33
2022-12-12T23:12:13.849Z,15.63
2022-12-12T23:14:35.247Z,14.37
2022-12-12T23:16:56.723Z,18.67
2022-12-12T23:19:21.649Z,18.30
2022-12-12T23:21:43.716Z,16.17
2022-12-12T23:24:06.051Z,16.43
2022-12-12T23:26:30.261Z,19.43
2022-12-12T23:28:52.604Z,17.03
2022-12-12T23:31:20.129Z,14.93
2022-12-12T23:33:42.262Z,13.37
2022-12-12T23:36:05.255Z,15.33
2022-12-12T23:38:26.656Z,16.37
2022-12-12T23:40:48.154Z,19.90
2022-12-12T23:43:09.972Z,22.60
2022-12-12T23:45:31.571Z,19.23
2022-12-12T23:47:53.454Z,16.40
2022-12-12T23:50:15.042Z,14.13
2022-12-12T23:52:39.538Z,14.03
2022-12-12T23:55:01.037Z,13.93
2022-12-12T23:57:22.538Z,14.50
2022-12-12T23:59:44.286Z,15.13
